Terminal Aerodrome Forecast
Issued by NWS

Home | Current Version | Previous Version | Text Only | Print | Product List | Glossary On
Versions: 1 2 3 4 5 6 7 8 9 10 11 12
000
FTUS46 KMFR 031135
TAFLMT
TAF
KLMT 031135Z 0312/0412 30006KT P6SM SCT250
     FM040000 32014KT P6SM SCT100 SCT250
     FM040500 30005KT P6SM SCT200=

USA.gov is the U.S. government's official web portal to all federal, state and local government web resources and services.